createdAt,value
2023-02-16T00:01:59.698Z,32.27
2023-02-16T00:04:29.311Z,27.07
2023-02-16T00:07:02.122Z,33.30
2023-02-16T00:09:29.877Z,33.90
2023-02-16T00:12:18.516Z,36.30
2023-02-16T00:14:50.951Z,31.63
2023-02-16T00:17:18.792Z,34.40
2023-02-16T00:19:48.541Z,36.83
2023-02-16T00:22:20.529Z,37.40
2023-02-16T00:24:48.240Z,31.77
2023-02-16T00:27:20.485Z,32.33
2023-02-16T00:29:51.770Z,37.57
2023-02-16T00:32:19.646Z,36.97
2023-02-16T00:34:51.463Z,34.87
2023-02-16T00:37:19.453Z,37.87
2023-02-16T00:39:47.456Z,32.10
2023-02-16T00:42:22.558Z,34.97
2023-02-16T00:44:53.833Z,32.30
2023-02-16T00:47:30.629Z,33.23
2023-02-16T00:50:00.865Z,34.60
2023-02-16T00:52:38.871Z,30.73
2023-02-16T00:55:11.535Z,38.57
2023-02-16T00:57:44.201Z,35.23
2023-02-16T01:00:20.033Z,34.00
2023-02-16T01:02:51.872Z,36.33
2023-02-16T01:05:21.969Z,36.63
2023-02-16T01:08:07.401Z,35.08
2023-02-16T01:10:56.353Z,35.33
2023-02-16T01:13:26.667Z,32.07
2023-02-16T01:15:58.314Z,34.40
2023-02-16T01:18:26.310Z,35.13
2023-02-16T01:20:56.495Z,33.47
2023-02-16T01:23:26.769Z,31.70
2023-02-16T01:25:54.631Z,38.45
2023-02-16T01:28:26.575Z,35.17
2023-02-16T01:30:57.573Z,36.03
2023-02-16T01:33:25.339Z,31.83
2023-02-16T01:35:56.671Z,32.60
2023-02-16T01:38:28.652Z,33.07
2023-02-16T01:41:08.266Z,35.00
2023-02-16T01:43:52.313Z,34.58
2023-02-16T01:46:28.691Z,33.53
2023-02-16T01:48:59.876Z,37.23
2023-02-16T01:51:32.787Z,33.37
2023-02-16T01:54:12.629Z,31.90
2023-02-16T01:56:44.811Z,32.70
2023-02-16T01:59:23.535Z,30.07
2023-02-16T02:01:56.437Z,29.67
2023-02-16T02:04:56.467Z,30.20
2023-02-16T02:07:31.726Z,34.17
2023-02-16T02:10:08.392Z,28.70
2023-02-16T02:12:42.304Z,34.27
2023-02-16T02:15:12.801Z,34.00
2023-02-16T02:20:22.353Z,29.40
2023-02-16T02:23:33.185Z,33.83
2023-02-16T02:26:28.153Z,33.43
2023-02-16T02:29:10.846Z,32.87
2023-02-16T02:31:53.733Z,28.60
2023-02-16T02:34:31.746Z,28.33
2023-02-16T02:37:08.964Z,28.57
2023-02-16T02:39:44.969Z,30.67
2023-02-16T02:42:22.663Z,30.80
2023-02-16T02:44:55.617Z,29.20
2023-02-16T02:47:40.315Z,30.83
2023-02-16T02:50:33.568Z,28.73
2023-02-16T02:53:11.176Z,32.53
2023-02-16T02:56:00.846Z,30.10
2023-02-16T02:58:56.241Z,27.48
2023-02-16T03:01:26.646Z,28.70
2023-02-16T03:06:31.297Z,25.17
2023-02-16T03:09:05.791Z,27.80
2023-02-16T03:11:51.411Z,32.93
2023-02-16T03:14:23.784Z,26.47
2023-02-16T03:17:15.671Z,29.47
2023-02-16T03:20:08.495Z,27.03
2023-02-16T03:22:57.301Z,27.23
2023-02-16T03:25:49.648Z,30.30
2023-02-16T03:28:39.137Z,27.40
2023-02-16T03:31:09.472Z,26.63
2023-02-16T03:33:42.126Z,27.63
2023-02-16T03:36:13.595Z,31.33
2023-02-16T03:38:43.622Z,28.70
2023-02-16T03:41:11.450Z,25.83
2023-02-16T03:43:41.506Z,28.00
2023-02-16T03:46:09.589Z,25.05
2023-02-16T03:48:38.951Z,25.83
2023-02-16T03:51:08.783Z,25.77
2023-02-16T03:53:38.869Z,25.77
2023-02-16T03:56:11.511Z,23.70
2023-02-16T03:58:39.412Z,28.47
2023-02-16T04:01:07.412Z,24.70
2023-02-16T04:03:37.441Z,27.13
2023-02-16T04:06:06.890Z,24.42
2023-02-16T04:08:37.053Z,27.58
2023-02-16T04:11:26.201Z,28.05
2023-02-16T04:13:53.293Z,24.10
2023-02-16T04:16:21.122Z,26.40
2023-02-16T04:18:50.759Z,26.57
2023-02-16T04:21:21.692Z,27.15
2023-02-16T04:23:49.502Z,25.73
2023-02-16T04:26:19.078Z,26.13
2023-02-16T04:28:48.939Z,27.63
2023-02-16T04:31:16.835Z,23.90
2023-02-16T04:33:46.661Z,22.83
2023-02-16T04:36:16.568Z,19.38
2023-02-16T04:38:45.814Z,24.50
2023-02-16T04:41:15.464Z,20.47
2023-02-16T04:43:43.401Z,21.67
2023-02-16T04:46:11.213Z,21.80
2023-02-16T04:48:40.946Z,22.70
2023-02-16T04:51:10.846Z,25.17
2023-02-16T04:53:38.576Z,26.15
2023-02-16T04:56:12.564Z,22.67
2023-02-16T04:58:42.862Z,26.73
2023-02-16T05:03:40.376Z,25.63
2023-02-16T05:06:10.435Z,21.30
2023-02-16T05:08:38.233Z,20.75
2023-02-16T05:11:24.940Z,22.53
2023-02-16T05:14:16.695Z,19.90
2023-02-16T05:16:44.620Z,21.77
2023-02-16T05:19:14.675Z,19.83
2023-02-16T05:21:42.378Z,22.92
2023-02-16T05:24:14.884Z,23.57
2023-02-16T05:26:46.118Z,15.77
2023-02-16T05:29:13.875Z,16.87
2023-02-16T05:31:43.508Z,18.47
2023-02-16T05:34:13.646Z,17.83
2023-02-16T05:36:41.660Z,19.67
2023-02-16T05:39:11.290Z,16.77
2023-02-16T05:41:41.292Z,16.83
2023-02-16T05:44:10.883Z,17.98
2023-02-16T05:46:42.650Z,20.27
2023-02-16T05:49:12.596Z,18.07
2023-02-16T05:51:40.347Z,17.33
2023-02-16T05:54:10.251Z,18.73
2023-02-16T05:56:40.193Z,17.75
2023-02-16T05:59:08.105Z,22.55
2023-02-16T06:01:39.229Z,16.57
2023-02-16T06:04:09.476Z,15.73
2023-02-16T06:06:38.176Z,14.35
2023-02-16T06:09:09.163Z,13.77
2023-02-16T06:11:39.354Z,17.07
2023-02-16T06:14:09.285Z,17.17
2023-02-16T06:16:42.082Z,15.32
2023-02-16T06:19:13.385Z,16.20
2023-02-16T06:21:41.996Z,15.47
2023-02-16T06:24:14.261Z,17.50
2023-02-16T06:26:44.234Z,17.77
2023-02-16T06:29:14.175Z,16.73
2023-02-16T06:31:45.287Z,15.65
2023-02-16T06:34:13.123Z,16.77
2023-02-16T06:36:42.985Z,18.80
2023-02-16T06:39:12.727Z,16.50
2023-02-16T06:41:41.025Z,20.95
2023-02-16T06:44:17.086Z,19.40
2023-02-16T06:46:47.950Z,17.53
2023-02-16T06:49:21.630Z,18.23
2023-02-16T06:51:50.986Z,20.00
2023-02-16T06:54:21.223Z,18.40
2023-02-16T06:56:50.881Z,19.45
2023-02-16T06:59:20.992Z,20.23
2023-02-16T07:01:50.069Z,19.13
2023-02-16T07:04:19.725Z,21.37
2023-02-16T07:06:50.036Z,21.23
2023-02-16T07:09:18.268Z,19.38
2023-02-16T07:11:47.898Z,16.07
2023-02-16T07:14:19.853Z,20.98
2023-02-16T07:16:49.986Z,19.97
2023-02-16T07:19:19.394Z,18.70
2023-02-16T07:21:47.235Z,15.07
2023-02-16T07:24:14.951Z,17.07
2023-02-16T07:26:45.054Z,14.93
2023-02-16T07:29:12.898Z,16.40
2023-02-16T07:31:40.715Z,19.07
2023-02-16T07:34:08.883Z,17.80
2023-02-16T07:36:39.857Z,19.03
2023-02-16T07:39:09.613Z,20.30
2023-02-16T07:41:39.790Z,18.30
2023-02-16T07:44:08.087Z,17.58
2023-02-16T07:46:38.130Z,17.40
2023-02-16T07:49:08.056Z,18.52
2023-02-16T07:51:37.852Z,18.63
2023-02-16T07:54:07.450Z,15.05
2023-02-16T07:56:36.555Z,17.52
2023-02-16T07:59:05.349Z,17.70
2023-02-16T08:01:34.276Z,19.50
2023-02-16T08:04:04.376Z,15.83
2023-02-16T08:06:32.222Z,16.35
2023-02-16T08:08:59.919Z,16.50
2023-02-16T08:11:29.122Z,18.93
2023-02-16T08:13:56.942Z,16.63
2023-02-16T08:16:35.330Z,16.80
2023-02-16T08:19:06.429Z,18.10
2023-02-16T08:21:35.604Z,16.90
2023-02-16T08:24:09.677Z,16.10
2023-02-16T08:26:41.386Z,15.47
2023-02-16T08:29:15.030Z,14.40
2023-02-16T08:31:42.978Z,18.93
2023-02-16T08:34:11.036Z,17.87
2023-02-16T08:36:43.873Z,17.27
2023-02-16T08:39:14.950Z,16.67
2023-02-16T08:41:49.177Z,14.67
2023-02-16T08:44:18.340Z,15.50
2023-02-16T08:46:49.897Z,16.83
2023-02-16T08:49:21.230Z,16.67
2023-02-16T08:51:54.780Z,15.43
2023-02-16T08:54:27.819Z,17.17
2023-02-16T08:57:01.572Z,13.17
2023-02-16T08:59:29.665Z,17.17
2023-02-16T09:02:00.225Z,16.60
2023-02-16T09:04:29.433Z,15.73
2023-02-16T09:07:01.783Z,13.93
2023-02-16T09:09:31.872Z,15.40
2023-02-16T09:12:00.987Z,15.05
2023-02-16T09:14:31.138Z,17.57
2023-02-16T09:17:01.170Z,14.68
2023-02-16T09:19:28.996Z,17.65
2023-02-16T09:21:59.116Z,17.17
2023-02-16T09:24:32.249Z,14.70
2023-02-16T09:27:03.563Z,16.63
2023-02-16T09:29:34.544Z,17.00
2023-02-16T09:32:06.581Z,17.00
2023-02-16T09:34:34.293Z,17.77
2023-02-16T09:37:02.333Z,16.93
2023-02-16T09:39:35.636Z,18.30
2023-02-16T09:42:21.539Z,17.63
2023-02-16T09:45:00.359Z,18.70
2023-02-16T09:47:31.466Z,18.63
2023-02-16T09:50:05.734Z,18.07
2023-02-16T09:52:37.777Z,20.13
2023-02-16T09:55:15.115Z,20.77
2023-02-16T09:57:58.803Z,18.67
2023-02-16T10:00:43.876Z,21.03
2023-02-16T10:03:24.956Z,19.37
2023-02-16T10:06:02.077Z,22.27
2023-02-16T10:08:38.819Z,23.53
2023-02-16T10:11:34.952Z,20.63
2023-02-16T10:14:10.292Z,20.13
2023-02-16T10:16:43.876Z,21.40
2023-02-16T10:19:22.433Z,19.67
2023-02-16T10:21:56.417Z,20.00
2023-02-16T10:24:29.168Z,20.63
2023-02-16T10:27:06.284Z,20.50
2023-02-16T10:29:37.716Z,22.87
2023-02-16T10:32:19.026Z,23.60
2023-02-16T10:34:51.341Z,23.23
2023-02-16T10:37:32.157Z,23.60
2023-02-16T10:40:17.833Z,27.50
2023-02-16T10:42:53.844Z,25.10
2023-02-16T10:45:31.940Z,28.77
2023-02-16T10:48:02.242Z,24.57
2023-02-16T10:50:37.993Z,27.27
2023-02-16T10:53:12.554Z,29.63
2023-02-16T10:55:42.602Z,30.63
2023-02-16T10:58:22.737Z,30.20
2023-02-16T11:01:00.722Z,33.47
2023-02-16T11:03:33.509Z,30.80
2023-02-16T11:06:14.505Z,34.57
2023-02-16T11:08:51.930Z,35.83
2023-02-16T11:11:23.118Z,33.17
2023-02-16T11:13:58.585Z,37.07
2023-02-16T11:16:30.205Z,39.23
2023-02-16T11:19:00.337Z,36.83
2023-02-16T11:21:46.086Z,34.95
2023-02-16T11:24:24.336Z,36.67
2023-02-16T11:27:02.253Z,39.40
2023-02-16T11:29:33.747Z,36.70
2023-02-16T11:32:07.894Z,39.87
2023-02-16T11:34:39.931Z,41.63
2023-02-16T11:37:16.490Z,42.53
2023-02-16T11:39:52.471Z,41.60
2023-02-16T11:42:30.101Z,42.13
2023-02-16T11:45:02.092Z,43.87
2023-02-16T11:47:36.178Z,41.43
2023-02-16T11:50:22.120Z,42.20
2023-02-16T11:52:54.727Z,38.60
2023-02-16T11:55:30.028Z,35.77
2023-02-16T11:58:14.915Z,41.03
2023-02-16T12:00:47.857Z,40.27
2023-02-16T12:03:36.720Z,37.47
2023-02-16T12:06:20.820Z,40.10
2023-02-16T12:09:04.021Z,35.47
2023-02-16T12:11:44.144Z,40.90
2023-02-16T12:14:23.207Z,39.78
2023-02-16T12:17:00.124Z,37.73
2023-02-16T12:19:39.913Z,39.30
2023-02-16T12:22:20.784Z,36.58
2023-02-16T12:25:03.865Z,39.07
2023-02-16T12:27:40.376Z,37.30
2023-02-16T12:30:27.533Z,37.93
2023-02-16T12:33:11.138Z,35.00
2023-02-16T12:35:57.068Z,37.90
2023-02-16T12:38:37.528Z,35.63
2023-02-16T12:43:40.295Z,37.23
2023-02-16T12:46:15.920Z,33.08
2023-02-16T12:48:49.213Z,35.83
2023-02-16T12:51:23.915Z,35.70
2023-02-16T12:54:02.457Z,37.47
2023-02-16T12:56:38.367Z,34.03
2023-02-16T12:59:18.594Z,38.77
2023-02-16T13:01:51.224Z,44.53
2023-02-16T13:04:27.600Z,37.77
2023-02-16T13:07:03.214Z,40.43
2023-02-16T13:09:44.162Z,40.53
2023-02-16T13:12:27.343Z,42.33
2023-02-16T13:15:05.511Z,41.77
2023-02-16T13:17:40.837Z,41.83
2023-02-16T13:20:18.508Z,43.23
2023-02-16T13:23:25.903Z,44.93
2023-02-16T13:26:16.035Z,42.43
2023-02-16T13:29:03.439Z,39.20
2023-02-16T13:31:46.797Z,42.47
2023-02-16T13:34:42.398Z,39.70
2023-02-16T13:37:34.195Z,42.23
2023-02-16T13:40:20.249Z,42.13
2023-02-16T13:43:09.507Z,41.27
2023-02-16T13:45:42.159Z,41.13
2023-02-16T13:48:17.372Z,44.20
2023-02-16T13:50:48.645Z,42.87
2023-02-16T13:53:21.256Z,40.77
2023-02-16T13:55:50.817Z,42.27
2023-02-16T13:58:33.859Z,42.03
2023-02-16T14:01:38.909Z,44.23
2023-02-16T14:04:34.547Z,42.97
2023-02-16T14:07:32.453Z,42.67
2023-02-16T14:10:02.110Z,41.40
2023-02-16T14:12:34.358Z,40.15
2023-02-16T14:15:05.070Z,44.67
2023-02-16T14:17:35.839Z,44.30
2023-02-16T14:20:07.474Z,42.17
2023-02-16T14:22:41.900Z,42.50
2023-02-16T14:25:38.543Z,41.77
2023-02-16T14:28:27.929Z,40.67
2023-02-16T14:30:58.183Z,43.83
2023-02-16T14:33:41.379Z,42.15
2023-02-16T14:36:16.135Z,41.80
2023-02-16T14:38:47.150Z,44.60
2023-02-16T14:41:29.090Z,41.60
2023-02-16T14:44:26.012Z,43.23
2023-02-16T14:47:03.100Z,44.37
2023-02-16T14:50:03.734Z,40.43
2023-02-16T14:53:08.766Z,40.00
2023-02-16T14:55:59.665Z,39.77
2023-02-16T14:58:32.882Z,43.23
2023-02-16T15:01:07.390Z,40.13
2023-02-16T15:03:48.295Z,44.73
2023-02-16T15:06:24.221Z,42.47
2023-02-16T15:09:02.441Z,48.27
2023-02-16T15:11:34.591Z,47.07
2023-02-16T15:14:11.722Z,49.50
2023-02-16T15:16:42.421Z,44.43
2023-02-16T15:19:18.123Z,47.07
2023-02-16T15:22:08.611Z,48.00
2023-02-16T15:27:04.147Z,46.00
2023-02-16T15:29:33.350Z,58.23
2023-02-16T15:32:02.184Z,54.33
2023-02-16T15:34:35.561Z,53.00
2023-02-16T15:37:25.777Z,50.73
2023-02-16T15:40:23.162Z,51.53
2023-02-16T15:45:28.132Z,53.20
2023-02-16T15:48:14.571Z,57.10
2023-02-16T15:50:46.142Z,53.90
2023-02-16T15:53:25.093Z,53.50
2023-02-16T15:55:53.316Z,54.27
2023-02-16T15:58:22.024Z,54.13
2023-02-16T16:00:49.915Z,51.23
2023-02-16T16:03:22.550Z,45.87
2023-02-16T16:06:02.217Z,52.43
2023-02-16T16:08:32.335Z,49.85
2023-02-16T16:11:00.220Z,52.45
2023-02-16T16:13:31.326Z,51.03
2023-02-16T16:16:02.093Z,49.67
2023-02-16T16:18:43.536Z,70.63
2023-02-16T16:21:18.964Z,53.47
2023-02-16T16:24:03.663Z,47.00
2023-02-16T16:26:33.580Z,56.80
2023-02-16T16:29:01.957Z,53.47
2023-02-16T16:31:42.338Z,61.97
2023-02-16T16:36:49.925Z,49.60
2023-02-16T16:39:26.571Z,47.73
2023-02-16T16:42:26.803Z,44.23
2023-02-16T16:44:58.458Z,48.92
2023-02-16T16:47:33.355Z,47.97
2023-02-16T16:50:04.008Z,45.67
2023-02-16T16:52:38.208Z,43.57
2023-02-16T16:55:26.229Z,47.73
2023-02-16T16:57:58.054Z,41.80
2023-02-16T17:00:28.914Z,45.10
2023-02-16T17:03:01.203Z,42.43
2023-02-16T17:05:28.985Z,47.93
2023-02-16T17:07:56.880Z,46.43
2023-02-16T17:10:31.608Z,43.57
2023-02-16T17:13:00.762Z,44.93
2023-02-16T17:15:40.864Z,46.00
2023-02-16T17:18:14.607Z,41.67
2023-02-16T17:20:44.525Z,43.27
2023-02-16T17:23:13.298Z,38.00
2023-02-16T17:25:44.852Z,41.57
2023-02-16T17:28:16.728Z,41.37
2023-02-16T17:30:44.584Z,43.00
2023-02-16T17:33:14.867Z,45.57
2023-02-16T17:35:44.425Z,46.60
2023-02-16T17:38:14.210Z,43.65
2023-02-16T17:40:49.704Z,46.70
2023-02-16T17:43:19.152Z,54.50
2023-02-16T17:45:49.921Z,59.83
2023-02-16T17:48:20.608Z,57.27
2023-02-16T17:50:49.321Z,47.57
2023-02-16T17:53:18.803Z,47.27
2023-02-16T17:55:50.730Z,48.17
2023-02-16T17:58:19.032Z,46.73
2023-02-16T18:00:47.406Z,48.03
2023-02-16T18:03:19.958Z,45.67
2023-02-16T18:05:47.983Z,46.07
2023-02-16T18:08:15.706Z,44.10
2023-02-16T18:10:49.484Z,47.27
2023-02-16T18:13:18.049Z,48.40
2023-02-16T18:15:48.405Z,48.03
2023-02-16T18:18:17.887Z,52.67
2023-02-16T18:20:46.229Z,48.27
2023-02-16T18:23:14.596Z,50.50
2023-02-16T18:25:44.149Z,46.07
2023-02-16T18:28:14.923Z,47.97
2023-02-16T18:30:42.865Z,48.40
2023-02-16T18:33:12.534Z,46.20
2023-02-16T18:35:40.373Z,48.40
2023-02-16T18:38:10.624Z,42.17
2023-02-16T18:40:38.421Z,43.38
2023-02-16T18:43:06.102Z,46.23
2023-02-16T18:45:41.473Z,42.83
2023-02-16T18:48:09.428Z,43.20
2023-02-16T18:50:40.065Z,46.10
2023-02-16T18:55:37.704Z,43.15
2023-02-16T18:58:08.324Z,50.90
2023-02-16T19:00:39.850Z,48.97
2023-02-16T19:03:08.121Z,45.83
2023-02-16T19:05:35.913Z,41.40
2023-02-16T19:08:03.707Z,44.93
2023-02-16T19:10:31.606Z,50.73
2023-02-16T19:13:01.159Z,50.27
2023-02-16T19:15:31.473Z,47.03
2023-02-16T19:18:02.438Z,51.00
2023-02-16T19:20:30.906Z,43.27
2023-02-16T19:23:02.177Z,47.47
2023-02-16T19:25:31.994Z,45.77
2023-02-16T19:27:59.685Z,47.00
2023-02-16T19:30:29.295Z,49.57
2023-02-16T19:32:57.236Z,47.00
2023-02-16T19:35:26.313Z,47.47
2023-02-16T19:37:55.903Z,46.30
2023-02-16T19:40:26.768Z,51.92
2023-02-16T19:42:54.439Z,47.93
2023-02-16T19:45:24.244Z,54.30
2023-02-16T19:47:54.067Z,55.60
2023-02-16T19:50:23.952Z,53.33
2023-02-16T19:52:54.891Z,52.03
2023-02-16T19:55:22.691Z,54.73
2023-02-16T19:57:50.814Z,56.70
2023-02-16T20:00:19.088Z,51.90
2023-02-16T20:02:46.852Z,53.83
2023-02-16T20:05:14.821Z,46.43
2023-02-16T20:07:44.424Z,50.40
2023-02-16T20:10:13.682Z,53.03
2023-02-16T20:12:41.475Z,53.10
2023-02-16T20:15:10.359Z,55.87
2023-02-16T20:17:38.066Z,49.13
2023-02-16T20:20:06.936Z,52.73
2023-02-16T20:22:36.984Z,48.03
2023-02-16T20:25:04.997Z,56.63
2023-02-16T20:27:36.391Z,58.83
2023-02-16T20:30:06.197Z,59.03
2023-02-16T20:32:34.330Z,64.68
2023-02-16T20:35:07.350Z,58.20
2023-02-16T20:37:35.208Z,62.40
2023-02-16T20:40:03.158Z,64.07
2023-02-16T20:42:36.447Z,66.23
2023-02-16T20:45:04.689Z,65.83
2023-02-16T20:47:36.749Z,60.80
2023-02-16T20:50:06.658Z,65.17
2023-02-16T20:52:36.777Z,60.03
2023-02-16T20:55:05.107Z,64.47
2023-02-16T20:57:35.328Z,57.50
2023-02-16T21:00:03.702Z,55.92
2023-02-16T21:02:31.436Z,66.77
2023-02-16T21:04:59.301Z,56.10
2023-02-16T21:07:28.074Z,60.90
2023-02-16T21:09:55.957Z,59.03
2023-02-16T21:12:23.773Z,60.97
2023-02-16T21:14:53.248Z,58.87
2023-02-16T21:17:23.500Z,55.65
2023-02-16T21:19:51.375Z,62.42
2023-02-16T21:22:19.289Z,58.60
2023-02-16T21:24:47.118Z,66.73
2023-02-16T21:27:15.114Z,65.43
2023-02-16T21:29:43.034Z,57.53
2023-02-16T21:32:14.445Z,63.90
2023-02-16T21:35:13.486Z,66.60
2023-02-16T21:37:41.465Z,70.23
2023-02-16T21:40:32.299Z,83.77
2023-02-16T21:43:00.198Z,75.63
2023-02-16T21:45:28.128Z,76.43
2023-02-16T21:48:17.003Z,70.57
2023-02-16T21:50:47.042Z,82.63
2023-02-16T21:53:14.803Z,74.35
2023-02-16T21:56:02.605Z,84.67
2023-02-16T21:58:35.934Z,77.63
2023-02-16T22:01:05.607Z,84.57
2023-02-16T22:03:36.840Z,80.75
2023-02-16T22:06:05.627Z,69.93
2023-02-16T22:08:39.725Z,78.70
2023-02-16T22:11:11.663Z,75.83
2023-02-16T22:13:40.144Z,71.23
2023-02-16T22:16:17.035Z,71.93
2023-02-16T22:18:49.069Z,68.97
2023-02-16T22:21:20.862Z,66.90
2023-02-16T22:23:50.786Z,77.07
2023-02-16T22:26:25.510Z,64.40
2023-02-16T22:28:56.030Z,65.90
2023-02-16T22:31:25.278Z,60.53
2023-02-16T22:34:02.457Z,63.00
2023-02-16T22:36:30.776Z,58.17
2023-02-16T22:38:58.676Z,63.17
2023-02-16T22:41:30.515Z,59.87
2023-02-16T22:44:00.068Z,57.07
2023-02-16T22:46:28.852Z,59.50
2023-02-16T22:49:02.836Z,50.77
2023-02-16T22:51:31.610Z,58.43
2023-02-16T22:54:02.840Z,61.83
2023-02-16T22:56:31.831Z,55.37
2023-02-16T22:59:00.758Z,50.43
2023-02-16T23:01:31.399Z,54.27
2023-02-16T23:04:03.994Z,56.17
2023-02-16T23:06:35.466Z,57.20
2023-02-16T23:09:09.735Z,58.97
2023-02-16T23:11:37.453Z,48.80
2023-02-16T23:14:18.093Z,57.70
2023-02-16T23:16:47.597Z,54.67
2023-02-16T23:19:22.558Z,60.88
2023-02-16T23:21:50.385Z,56.53
2023-02-16T23:24:25.667Z,57.40
2023-02-16T23:26:54.267Z,57.27
2023-02-16T23:29:24.485Z,55.13
2023-02-16T23:31:55.093Z,53.08
2023-02-16T23:34:24.286Z,58.53
2023-02-16T23:36:54.201Z,51.77
2023-02-16T23:39:22.052Z,53.97
2023-02-16T23:41:49.773Z,46.43
2023-02-16T23:44:19.801Z,59.60
2023-02-16T23:46:49.842Z,54.22
2023-02-16T23:49:17.557Z,53.33
2023-02-16T23:51:48.964Z,49.20
2023-02-16T23:54:18.542Z,51.57
2023-02-16T23:56:46.249Z,55.35
2023-02-16T23:59:16.205Z,49.47
